Time;durP1;ratioP1;P1;durP2;ratioP2;P2;SDS_P1;SDS_P2;PMS_P1;PMS_P2;Temp;Humidity;BMP_temperature;BMP_pressure;BME280_temperature;BME280_humidity;BME280_pressure;Samples;Min_cycle;Max_cycle;Signal;HPM_P1;HPM_P2
2021/10/24 00:01:03;;;;;;;6.60;4.60;;;8.50;84.10;;;;;;5040164;28;20033;-76
2021/10/24 00:03:30;;;;;;;7.10;4.65;;;8.50;84.10;;;;;;5049259;28;20500;-77
2021/10/24 00:05:56;;;;;;;7.93;5.25;;;8.50;84.10;;;;;;5044407;28;20029;-77
2021/10/24 00:08:21;;;;;;;5.10;4.03;;;8.50;84.10;;;;;;5051873;28;20036;-76
2021/10/24 00:10:47;;;;;;;6.70;4.82;;;8.40;84.10;;;;;;5048443;28;20025;-77
2021/10/24 00:13:13;;;;;;;8.75;4.72;;;8.40;84.20;;;;;;5050324;28;20112;-76
2021/10/24 00:15:38;;;;;;;4.97;4.15;;;8.40;84.10;;;;;;5036907;28;20049;-78
2021/10/24 00:18:04;;;;;;;6.40;4.07;;;8.40;84.20;;;;;;5049354;28;20215;-78
2021/10/24 00:20:30;;;;;;;8.10;5.63;;;8.40;84.20;;;;;;5044300;28;20522;-78
2021/10/24 00:22:56;;;;;;;6.78;4.60;;;8.40;84.10;;;;;;5045436;28;20102;-77
2021/10/24 00:25:21;;;;;;;8.90;6.22;;;8.40;84.10;;;;;;5052194;28;20036;-77
2021/10/24 00:27:47;;;;;;;11.32;4.90;;;8.40;84.10;;;;;;5050023;28;20474;-76
2021/10/24 00:30:12;;;;;;;10.15;6.57;;;8.40;84.10;;;;;;5045818;28;20112;-77
2021/10/24 00:32:38;;;;;;;6.30;4.68;;;8.30;84.10;;;;;;5044846;28;20052;-78
2021/10/24 00:35:04;;;;;;;6.07;4.55;;;8.30;84.20;;;;;;5051011;28;20051;-78
2021/10/24 00:37:30;;;;;;;6.00;4.70;;;8.40;84.20;;;;;;5039115;28;20082;-77
2021/10/24 00:39:55;;;;;;;7.45;4.95;;;8.30;84.10;;;;;;5051504;28;20017;-78
2021/10/24 00:42:21;;;;;;;6.78;5.03;;;8.30;84.10;;;;;;5049267;28;20608;-78
2021/10/24 00:44:46;;;;;;;6.78;4.35;;;8.30;84.10;;;;;;5051029;28;20119;-78
2021/10/24 00:47:13;;;;;;;6.63;4.53;;;8.30;84.10;;;;;;5050314;28;20084;-78
2021/10/24 00:49:39;;;;;;;8.20;5.53;;;8.30;84.20;;;;;;5047949;28;20063;-78
2021/10/24 00:52:05;;;;;;;7.65;4.63;;;8.30;84.30;;;;;;5047436;28;20492;-78
2021/10/24 00:54:33;;;;;;;9.85;5.97;;;8.30;84.30;;;;;;5050496;28;20601;-77
2021/10/24 00:57:01;;;;;;;6.30;4.40;;;8.30;84.20;;;;;;5046567;28;20046;-77
2021/10/24 00:59:27;;;;;;;7.57;4.53;;;8.20;84.30;;;;;;5040528;28;20487;-77
2021/10/24 01:01:53;;;;;;;7.72;5.43;;;8.20;84.20;;;;;;5048708;28;20049;-77
2021/10/24 01:04:19;;;;;;;7.03;5.15;;;8.20;84.20;;;;;;5051194;28;20033;-77
2021/10/24 01:06:46;;;;;;;8.35;5.70;;;8.20;84.20;;;;;;5049994;28;20040;-76
2021/10/24 01:09:16;;;;;;;9.75;6.43;;;8.10;84.20;;;;;;5042973;28;20057;-77
2021/10/24 01:11:43;;;;;;;8.45;5.57;;;8.10;84.20;;;;;;5047859;28;20029;-77
2021/10/24 01:14:10;;;;;;;10.40;5.57;;;8.10;84.30;;;;;;5040400;28;20024;-76
2021/10/24 01:16:37;;;;;;;7.57;5.28;;;8.10;84.30;;;;;;5039731;28;20392;-76
2021/10/24 01:19:04;;;;;;;7.35;5.47;;;8.10;84.40;;;;;;5046380;28;20029;-77
2021/10/24 01:21:30;;;;;;;7.50;5.30;;;8.10;84.40;;;;;;5051141;28;20103;-78
2021/10/24 01:23:56;;;;;;;10.32;6.75;;;8.10;84.50;;;;;;5045795;28;20494;-78
2021/10/24 01:26:21;;;;;;;8.70;5.90;;;8.00;84.60;;;;;;5045747;28;20034;-78
2021/10/24 01:28:47;;;;;;;7.55;4.82;;;8.00;84.70;;;;;;5048616;28;20057;-78
2021/10/24 01:31:12;;;;;;;6.22;4.70;;;8.10;84.80;;;;;;5045126;28;20107;-78
2021/10/24 01:33:38;;;;;;;6.32;4.90;;;8.10;84.70;;;;;;5049003;28;20068;-78
2021/10/24 01:36:09;;;;;;;8.63;5.78;;;8.10;84.60;;;;;;5040564;28;20512;-77
2021/10/24 01:38:36;;;;;;;6.30;4.85;;;8.10;84.50;;;;;;5045093;28;20044;-77
2021/10/24 01:41:07;;;;;;;7.22;4.78;;;8.10;84.50;;;;;;5042810;28;20028;-78
2021/10/24 01:43:33;;;;;;;6.70;4.90;;;8.10;84.60;;;;;;5037959;28;20127;-78
2021/10/24 01:45:59;;;;;;;6.88;4.40;;;8.10;84.60;;;;;;5048909;28;20044;-78
2021/10/24 01:48:25;;;;;;;9.20;5.85;;;8.10;84.50;;;;;;5038317;28;20099;-78
2021/10/24 01:50:52;;;;;;;9.90;6.38;;;8.00;84.50;;;;;;5048638;28;20025;-78
2021/10/24 01:53:23;;;;;;;10.07;5.97;;;8.00;84.70;;;;;;5040744;28;20025;-81
2021/10/24 01:55:49;;;;;;;8.30;5.82;;;8.00;84.80;;;;;;5063562;28;20024;-78
2021/10/24 01:58:15;;;;;;;8.70;6.82;;;8.00;84.90;;;;;;5044068;28;20043;-78
2021/10/24 02:00:43;;;;;;;7.72;4.95;;;8.00;84.90;;;;;;5046641;28;20064;-78
2021/10/24 02:03:09;;;;;;;8.85;5.60;;;8.10;84.90;;;;;;5045042;28;20017;-77
2021/10/24 02:05:35;;;;;;;7.28;5.22;;;8.10;84.90;;;;;;5044273;28;20049;-77
2021/10/24 02:08:00;;;;;;;8.52;6.07;;;8.10;84.80;;;;;;5039862;28;20071;-77
2021/10/24 02:10:26;;;;;;;6.10;4.65;;;8.10;84.80;;;;;;5042107;28;20035;-78
2021/10/24 02:12:51;;;;;;;7.93;5.15;;;8.10;84.90;;;;;;5032987;28;20075;-77
2021/10/24 02:15:17;;;;;;;7.03;5.03;;;8.10;84.90;;;;;;5038392;28;20475;-77
2021/10/24 02:17:43;;;;;;;6.20;4.25;;;8.10;85.00;;;;;;5036837;28;20033;-77
2021/10/24 02:20:09;;;;;;;7.95;5.45;;;8.10;84.90;;;;;;5036253;28;20028;-77
2021/10/24 02:22:35;;;;;;;5.55;3.90;;;8.00;85.00;;;;;;5039257;28;20591;-77
2021/10/24 02:25:01;;;;;;;6.97;5.00;;;8.00;85.00;;;;;;5035368;28;20022;-77
2021/10/24 02:27:26;;;;;;;6.70;4.82;;;8.00;85.00;;;;;;5038560;28;20383;-77
2021/10/24 02:29:52;;;;;;;7.45;4.68;;;8.00;84.90;;;;;;5035047;28;20648;-79
2021/10/24 02:32:18;;;;;;;5.32;3.97;;;8.00;84.90;;;;;;5031611;28;20472;-77
2021/10/24 02:34:43;;;;;;;4.40;3.88;;;8.00;84.90;;;;;;5038248;28;20117;-78
2021/10/24 02:37:09;;;;;;;5.80;4.20;;;8.00;84.90;;;;;;5045106;28;20060;-77
2021/10/24 02:39:35;;;;;;;5.68;4.30;;;8.00;84.90;;;;;;5054172;28;20376;-78
2021/10/24 02:42:01;;;;;;;5.43;4.22;;;8.00;84.90;;;;;;5049535;28;20029;-77
2021/10/24 02:44:26;;;;;;;7.63;4.22;;;8.00;84.90;;;;;;5049123;28;20017;-78
2021/10/24 02:46:57;;;;;;;5.90;4.07;;;8.00;84.90;;;;;;5043621;28;20386;-78
2021/10/24 02:49:23;;;;;;;6.60;4.47;;;7.90;84.90;;;;;;5034757;28;20037;-78
2021/10/24 02:51:49;;;;;;;6.63;4.25;;;8.00;84.90;;;;;;5041272;28;20021;-77
2021/10/24 02:54:15;;;;;;;7.15;4.70;;;8.00;85.00;;;;;;5046812;28;20037;-77
2021/10/24 02:56:41;;;;;;;7.07;4.60;;;8.00;84.90;;;;;;5045994;28;20041;-77
2021/10/24 02:59:07;;;;;;;4.68;3.55;;;8.00;84.90;;;;;;5045632;28;20135;-77
2021/10/24 03:01:32;;;;;;;5.63;4.07;;;7.90;84.80;;;;;;5046120;28;20021;-78
2021/10/24 03:03:58;;;;;;;5.80;4.07;;;7.90;84.80;;;;;;5041501;28;20029;-78
2021/10/24 03:06:23;;;;;;;7.47;4.72;;;7.90;84.90;;;;;;5052339;28;20461;-77
2021/10/24 03:08:49;;;;;;;5.63;4.13;;;8.00;85.00;;;;;;5052714;28;20361;-77
2021/10/24 03:11:14;;;;;;;5.95;4.28;;;8.00;84.90;;;;;;5050218;28;20083;-78
2021/10/24 03:13:40;;;;;;;5.43;3.75;;;8.00;85.00;;;;;;5050877;28;20085;-78
2021/10/24 03:16:05;;;;;;;6.57;4.10;;;7.90;85.00;;;;;;5048665;28;20127;-78
2021/10/24 03:18:31;;;;;;;5.85;3.83;;;7.90;85.00;;;;;;5040020;28;20047;-78
2021/10/24 03:20:57;;;;;;;5.13;3.95;;;7.90;85.00;;;;;;5053194;28;20036;-78
2021/10/24 03:23:23;;;;;;;7.70;4.60;;;7.90;85.00;;;;;;5048467;28;20032;-77
2021/10/24 03:25:49;;;;;;;7.25;4.70;;;7.90;85.00;;;;;;5040025;28;20029;-77
2021/10/24 03:28:15;;;;;;;6.68;4.93;;;7.90;85.00;;;;;;5068398;28;20043;-77
2021/10/24 03:30:41;;;;;;;5.95;4.68;;;7.90;85.10;;;;;;5053377;28;20025;-78
2021/10/24 03:33:07;;;;;;;6.53;4.07;;;7.90;85.10;;;;;;5051744;28;20034;-78
2021/10/24 03:35:33;;;;;;;5.15;3.35;;;7.90;85.00;;;;;;5049333;28;20361;-78
2021/10/24 03:37:58;;;;;;;5.65;4.07;;;7.90;85.10;;;;;;5046692;28;20021;-78
2021/10/24 03:40:24;;;;;;;5.72;3.88;;;7.90;85.00;;;;;;5050990;28;20032;-78
2021/10/24 03:42:50;;;;;;;5.35;3.88;;;7.90;85.10;;;;;;5050956;28;20415;-77
2021/10/24 03:45:16;;;;;;;4.85;3.75;;;7.90;85.10;;;;;;5051987;28;20033;-77
2021/10/24 03:47:41;;;;;;;5.13;3.38;;;7.90;85.10;;;;;;5050297;28;20029;-78
2021/10/24 03:50:07;;;;;;;5.15;3.70;;;7.90;85.10;;;;;;5047027;28;20032;-77
2021/10/24 03:52:33;;;;;;;5.75;4.30;;;7.90;85.00;;;;;;5041971;28;20056;-78
2021/10/24 03:54:59;;;;;;;5.55;3.92;;;7.90;85.00;;;;;;5046442;28;20468;-78
2021/10/24 03:57:24;;;;;;;5.15;3.60;;;7.90;85.00;;;;;;5045636;28;20044;-78
2021/10/24 03:59:50;;;;;;;3.90;3.13;;;7.90;84.90;;;;;;5051148;28;20036;-77
2021/10/24 04:02:16;;;;;;;4.47;3.47;;;7.90;84.90;;;;;;5051745;28;20024;-77
2021/10/24 04:04:44;;;;;;;4.75;3.60;;;7.90;84.90;;;;;;5048161;28;20474;-77
2021/10/24 04:07:10;;;;;;;5.93;3.70;;;7.90;84.90;;;;;;5034073;28;20025;-77
2021/10/24 04:09:35;;;;;;;7.13;3.58;;;7.90;84.80;;;;;;5049279;28;20018;-77
2021/10/24 04:12:01;;;;;;;4.60;3.70;;;7.90;84.80;;;;;;5067872;28;20112;-78
2021/10/24 04:14:26;;;;;;;5.32;3.47;;;7.80;84.70;;;;;;5042511;28;20527;-78
2021/10/24 04:16:52;;;;;;;3.97;3.22;;;7.80;84.70;;;;;;5032565;28;20558;-77
2021/10/24 04:19:18;;;;;;;4.93;3.50;;;7.80;85.30;;;;;;5034368;28;20472;-77
2021/10/24 04:21:44;;;;;;;6.00;3.55;;;7.80;84.70;;;;;;5040252;28;20025;-78
2021/10/24 04:24:10;;;;;;;5.53;3.30;;;7.80;84.80;;;;;;5031815;28;20029;-77
2021/10/24 04:26:36;;;;;;;4.90;3.70;;;7.80;84.80;;;;;;5033925;28;20360;-78
2021/10/24 04:29:01;;;;;;;4.78;3.42;;;7.80;84.80;;;;;;5032477;28;20033;-77
2021/10/24 04:31:27;;;;;;;4.63;3.35;;;7.80;84.80;;;;;;5033939;28;20026;-77
2021/10/24 04:33:53;;;;;;;4.70;3.60;;;7.80;84.80;;;;;;5043956;28;20032;-77
2021/10/24 04:36:18;;;;;;;5.78;3.42;;;7.70;84.70;;;;;;5040458;28;20037;-77
2021/10/24 04:38:44;;;;;;;4.93;3.83;;;7.70;84.80;;;;;;5032662;28;20074;-77
2021/10/24 04:41:09;;;;;;;4.53;3.35;;;7.70;84.80;;;;;;5047875;28;20031;-77
2021/10/24 04:43:35;;;;;;;4.75;3.47;;;7.60;84.80;;;;;;5039431;28;20438;-77
2021/10/24 04:46:00;;;;;;;5.43;3.72;;;7.60;84.80;;;;;;5045449;28;20017;-77
2021/10/24 04:48:26;;;;;;;5.55;3.92;;;7.60;84.80;;;;;;5052106;28;20037;-78
2021/10/24 04:50:52;;;;;;;5.00;3.78;;;7.60;84.80;;;;;;5049813;28;20021;-78
2021/10/24 04:53:18;;;;;;;7.20;4.28;;;7.50;84.80;;;;;;5051648;28;20037;-78
2021/10/24 04:55:45;;;;;;;5.35;3.50;;;7.50;84.70;;;;;;5049620;28;20024;-77
2021/10/24 04:58:11;;;;;;;6.55;4.03;;;7.40;84.80;;;;;;5051356;28;20032;-78
2021/10/24 05:00:37;;;;;;;5.75;4.00;;;7.40;84.90;;;;;;5050221;28;20021;-77
2021/10/24 05:03:02;;;;;;;6.40;3.85;;;7.40;84.90;;;;;;5034043;28;20022;-77
2021/10/24 05:05:28;;;;;;;5.43;4.10;;;7.40;85.00;;;;;;5044923;28;20067;-77
2021/10/24 05:07:54;;;;;;;7.15;4.10;;;7.30;84.90;;;;;;5051733;28;20033;-77
2021/10/24 05:10:19;;;;;;;5.47;3.50;;;7.30;85.00;;;;;;5035836;28;20113;-77
2021/10/24 05:12:46;;;;;;;5.60;3.78;;;7.30;85.00;;;;;;5039347;28;20029;-78
2021/10/24 05:15:12;;;;;;;5.55;3.95;;;7.30;84.90;;;;;;5031944;28;20105;-77
2021/10/24 05:17:38;;;;;;;6.20;3.85;;;7.30;85.00;;;;;;5049422;28;20124;-77
2021/10/24 05:20:07;;;;;;;6.70;3.92;;;7.30;85.00;;;;;;5051733;28;20013;-77
2021/10/24 05:22:33;;;;;;;5.72;3.65;;;7.30;85.50;;;;;;5049803;28;20061;-77
2021/10/24 05:24:58;;;;;;;7.00;4.03;;;7.30;84.90;;;;;;5036427;28;20024;-78
2021/10/24 05:27:24;;;;;;;5.30;4.07;;;7.30;85.00;;;;;;5033929;28;20033;-78
2021/10/24 05:29:49;;;;;;;4.90;3.72;;;7.20;84.90;;;;;;5035326;28;20028;-78
2021/10/24 05:32:15;;;;;;;6.63;4.22;;;7.20;84.90;;;;;;5049976;28;20093;-77
2021/10/24 05:34:42;;;;;;;5.93;4.13;;;7.20;85.00;;;;;;5051299;28;20029;-77
2021/10/24 05:37:08;;;;;;;6.00;3.75;;;7.20;85.10;;;;;;5048918;28;20027;-77
2021/10/24 05:39:34;;;;;;;6.15;4.15;;;7.10;85.10;;;;;;5048671;28;20036;-77
2021/10/24 05:42:00;;;;;;;10.80;6.30;;;7.10;85.10;;;;;;5047609;28;20371;-77
2021/10/24 05:44:26;;;;;;;6.90;4.70;;;7.10;85.10;;;;;;5049620;28;20035;-80
2021/10/24 05:46:53;;;;;;;6.03;3.58;;;7.10;85.20;;;;;;5042170;28;20029;-78
2021/10/24 05:49:19;;;;;;;5.32;3.97;;;7.10;85.20;;;;;;5034666;28;20480;-78
2021/10/24 05:51:44;;;;;;;6.93;4.15;;;7.10;85.30;;;;;;5047887;28;20017;-78
2021/10/24 05:54:10;;;;;;;4.93;3.65;;;7.10;85.20;;;;;;5050910;28;20472;-78
2021/10/24 05:56:35;;;;;;;5.72;4.18;;;7.10;85.70;;;;;;5045693;28;20030;-78
2021/10/24 05:59:01;;;;;;;4.90;3.13;;;7.10;85.10;;;;;;5030984;28;20130;-78
2021/10/24 06:01:27;;;;;;;5.70;4.03;;;7.10;85.10;;;;;;5041471;28;20080;-77
2021/10/24 06:03:53;;;;;;;4.97;3.72;;;7.10;85.10;;;;;;5045833;28;20037;-77
2021/10/24 06:06:19;;;;;;;5.93;4.50;;;7.00;85.10;;;;;;5033461;28;20025;-76
2021/10/24 06:08:44;;;;;;;7.97;5.25;;;7.00;85.50;;;;;;5031262;28;20534;-76
2021/10/24 06:11:14;;;;;;;7.35;5.05;;;7.00;85.30;;;;;;5043853;28;20140;-77
2021/10/24 06:13:43;;;;;;;7.22;4.80;;;7.00;85.50;;;;;;5031229;28;20036;-78
2021/10/24 06:16:09;;;;;;;8.52;5.68;;;6.90;85.40;;;;;;5047646;28;20071;-77
2021/10/24 06:18:36;;;;;;;7.68;4.90;;;6.90;85.50;;;;;;5040298;28;20060;-76
2021/10/24 06:21:01;;;;;;;6.20;4.50;;;6.90;85.70;;;;;;5050393;28;20042;-75
2021/10/24 06:23:27;;;;;;;9.73;5.28;;;6.90;85.70;;;;;;5044939;28;20033;-75
2021/10/24 06:25:53;;;;;;;5.80;4.40;;;6.90;85.70;;;;;;5041686;28;20498;-75
2021/10/24 06:28:18;;;;;;;8.40;6.00;;;6.90;85.70;;;;;;5042091;28;20052;-76
2021/10/24 06:30:44;;;;;;;7.25;4.70;;;6.80;85.70;;;;;;5036277;28;20028;-76
2021/10/24 06:33:09;;;;;;;7.78;5.32;;;6.80;85.80;;;;;;5047596;28;20017;-75
2021/10/24 06:35:35;;;;;;;9.10;6.32;;;6.80;85.80;;;;;;5050360;28;20032;-76
2021/10/24 06:38:00;;;;;;;8.13;4.95;;;6.80;86.00;;;;;;5041385;28;20037;-76
2021/10/24 06:40:26;;;;;;;8.27;5.30;;;6.80;86.00;;;;;;5052491;28;20102;-75
2021/10/24 06:42:52;;;;;;;9.05;6.03;;;6.80;86.00;;;;;;5051929;28;20029;-76
2021/10/24 06:45:17;;;;;;;8.93;5.53;;;6.70;86.00;;;;;;5050826;28;20036;-75
2021/10/24 06:47:43;;;;;;;7.47;5.57;;;6.80;86.10;;;;;;5050875;28;20032;-76
2021/10/24 06:50:10;;;;;;;9.70;7.20;;;6.80;86.10;;;;;;5048661;28;20421;-77
2021/10/24 06:52:36;;;;;;;12.93;8.55;;;6.70;86.10;;;;;;5050055;28;20366;-76
2021/10/24 06:55:03;;;;;;;14.75;8.98;;;6.70;86.30;;;;;;5053355;28;20525;-77
2021/10/24 06:57:29;;;;;;;14.45;9.13;;;6.60;86.40;;;;;;5050721;28;20041;-76
2021/10/24 06:59:54;;;;;;;15.48;10.98;;;6.60;86.50;;;;;;5047853;28;20025;-75
2021/10/24 07:02:20;;;;;;;13.35;9.27;;;6.60;86.80;;;;;;5047448;28;20024;-76
2021/10/24 07:04:47;;;;;;;13.70;9.80;;;6.60;87.00;;;;;;5045009;28;20072;-75
2021/10/24 07:07:12;;;;;;;13.45;9.82;;;6.60;87.00;;;;;;5046233;28;20033;-76
2021/10/24 07:09:38;;;;;;;13.20;8.57;;;6.60;87.20;;;;;;5055231;28;20025;-75
2021/10/24 07:12:03;;;;;;;15.35;10.40;;;6.70;87.30;;;;;;5046378;28;20029;-75
2021/10/24 07:14:29;;;;;;;17.45;11.18;;;6.70;87.30;;;;;;5041049;28;20036;-75
2021/10/24 07:16:56;;;;;;;14.35;9.75;;;6.70;87.40;;;;;;5045800;28;20037;-75
2021/10/24 07:19:22;;;;;;;11.73;8.43;;;6.70;87.40;;;;;;5045117;28;20098;-74
2021/10/24 07:21:48;;;;;;;12.35;8.35;;;6.70;87.40;;;;;;5047683;28;20028;-76
2021/10/24 07:24:14;;;;;;;12.18;8.10;;;6.80;87.40;;;;;;5038977;28;20028;-75
2021/10/24 07:26:40;;;;;;;10.07;7.30;;;6.90;87.40;;;;;;5045609;28;20044;-77
2021/10/24 07:29:06;;;;;;;12.00;9.00;;;6.90;87.20;;;;;;5050271;28;20502;-77
2021/10/24 07:31:31;;;;;;;12.85;8.55;;;6.90;87.20;;;;;;5050327;28;20028;-77
2021/10/24 07:33:57;;;;;;;10.93;7.97;;;6.90;87.10;;;;;;5051844;28;20024;-77
2021/10/24 07:36:22;;;;;;;9.48;6.78;;;6.90;87.10;;;;;;5054680;28;20029;-76
2021/10/24 07:38:48;;;;;;;8.55;6.00;;;7.00;87.10;;;;;;5050670;28;20507;-76
2021/10/24 07:41:13;;;;;;;10.43;6.32;;;7.00;87.00;;;;;;5055741;28;20262;-75
2021/10/24 07:43:39;;;;;;;11.75;7.80;;;7.10;87.00;;;;;;5054834;28;20048;-75
2021/10/24 07:46:06;;;;;;;9.43;7.40;;;7.20;86.80;;;;;;5050974;28;20052;-74
2021/10/24 07:48:31;;;;;;;10.25;7.00;;;7.20;86.70;;;;;;5056375;28;20666;-75
2021/10/24 07:50:57;;;;;;;9.45;6.32;;;7.20;86.60;;;;;;5049977;28;20040;-75
2021/10/24 07:53:26;;;;;;;12.95;8.98;;;7.30;86.60;;;;;;5055306;28;20025;-75
2021/10/24 07:55:53;;;;;;;8.77;6.72;;;7.30;86.40;;;;;;5050250;28;20420;-75
2021/10/24 07:58:19;;;;;;;10.13;6.82;;;7.40;86.50;;;;;;5050688;28;20036;-75
2021/10/24 08:00:46;;;;;;;9.98;7.38;;;7.40;86.50;;;;;;5049080;28;20017;-75
2021/10/24 08:03:11;;;;;;;11.82;7.63;;;7.40;86.40;;;;;;5050442;28;20017;-75
2021/10/24 08:05:37;;;;;;;9.50;6.47;;;7.50;86.40;;;;;;5050592;28;20023;-75
2021/10/24 08:08:03;;;;;;;10.93;7.78;;;7.50;86.20;;;;;;5052150;28;20424;-75
2021/10/24 08:10:28;;;;;;;9.48;7.03;;;7.60;86.20;;;;;;5052685;28;20025;-75
2021/10/24 08:12:54;;;;;;;11.88;9.00;;;7.70;86.10;;;;;;5050666;28;20033;-74
2021/10/24 08:15:20;;;;;;;10.55;7.05;;;7.70;86.10;;;;;;5050815;28;20029;-74
2021/10/24 08:17:48;;;;;;;13.35;8.50;;;7.80;86.00;;;;;;5051828;28;20056;-73
2021/10/24 08:20:14;;;;;;;12.80;8.07;;;7.80;86.00;;;;;;5052204;28;20104;-75
2021/10/24 08:22:40;;;;;;;11.43;7.80;;;7.90;85.80;;;;;;5048432;28;20112;-74
2021/10/24 08:25:06;;;;;;;10.75;7.00;;;7.90;85.70;;;;;;5050798;28;20136;-75
2021/10/24 08:27:32;;;;;;;9.23;7.07;;;8.00;85.50;;;;;;5050164;28;20033;-75
2021/10/24 08:29:59;;;;;;;14.10;8.73;;;8.00;85.50;;;;;;5067040;28;20097;-76
2021/10/24 08:32:25;;;;;;;13.65;9.95;;;8.10;85.40;;;;;;5051867;28;20021;-73
2021/10/24 08:34:51;;;;;;;12.98;9.23;;;8.10;85.20;;;;;;5051563;28;20041;-74
2021/10/24 08:37:16;;;;;;;12.35;8.30;;;8.20;85.10;;;;;;5050000;28;20045;-74
2021/10/24 08:39:42;;;;;;;13.80;9.10;;;8.20;85.00;;;;;;5049882;28;20159;-74
2021/10/24 08:42:08;;;;;;;12.63;7.90;;;8.30;84.90;;;;;;5048780;28;20429;-74
2021/10/24 08:44:34;;;;;;;9.77;7.05;;;8.30;84.70;;;;;;5050034;28;20024;-74
2021/10/24 08:47:00;;;;;;;11.52;7.82;;;8.40;84.60;;;;;;5045815;28;20021;-74
2021/10/24 08:49:26;;;;;;;12.63;7.63;;;8.50;84.50;;;;;;5050734;28;20133;-74
2021/10/24 08:51:51;;;;;;;14.55;10.02;;;8.60;84.20;;;;;;5050458;28;20428;-76
2021/10/24 08:54:24;;;;;;;12.90;8.60;;;8.60;83.70;;;;;;5039876;28;20021;-76
2021/10/24 08:56:50;;;;;;;;;;;8.60;83.50;;;;;;5051878;28;20436;-76
2021/10/24 08:59:15;;;;;;;10.55;7.13;;;8.70;83.20;;;;;;5049748;28;19963;-76
2021/10/24 09:01:54;;;;;;;8.70;6.20;;;8.70;83.20;;;;;;5051174;28;20502;-75
2021/10/24 09:04:20;;;;;;;14.70;8.80;;;8.70;83.30;;;;;;5045164;28;20116;-76
2021/10/24 09:06:55;;;;;;;12.32;8.25;;;8.80;83.00;;;;;;5038742;28;20099;-76
2021/10/24 09:09:32;;;;;;;11.63;8.90;;;8.80;82.90;;;;;;5050292;28;20033;-76
2021/10/24 09:12:12;;;;;;;10.15;7.47;;;8.80;82.60;;;;;;5049776;28;20028;-76
2021/10/24 09:14:42;;;;;;;8.90;6.70;;;8.80;82.70;;;;;;5051221;28;20028;-76
2021/10/24 09:17:10;;;;;;;10.77;8.10;;;8.90;82.70;;;;;;5044224;28;20045;-76
2021/10/24 09:19:41;;;;;;;12.07;7.20;;;9.00;82.70;;;;;;5050948;28;20036;-75
2021/10/24 09:22:17;;;;;;;15.10;9.57;;;9.10;82.60;;;;;;5050131;28;20395;-75
2021/10/24 09:25:01;;;;;;;11.18;7.40;;;9.10;82.40;;;;;;5042022;28;20036;-76
2021/10/24 09:27:33;;;;;;;13.85;8.35;;;9.20;82.30;;;;;;5040047;28;20029;-76
2021/10/24 09:30:13;;;;;;;11.77;8.68;;;9.20;82.00;;;;;;5051278;28;20017;-76
2021/10/24 09:32:56;;;;;;;17.95;9.63;;;9.30;81.70;;;;;;5051134;28;20063;-76
2021/10/24 09:35:25;;;;;;;10.73;7.72;;;9.20;81.10;;;;;;5045632;28;20371;-76
2021/10/24 09:37:51;;;;;;;9.40;6.72;;;9.30;81.30;;;;;;5049143;28;20109;-76
2021/10/24 09:40:17;;;;;;;11.30;8.27;;;9.30;81.20;;;;;;5048500;28;20515;-76
2021/10/24 09:42:43;;;;;;;12.55;8.55;;;9.40;81.00;;;;;;5050984;28;20032;-77
2021/10/24 09:45:13;;;;;;;9.25;6.25;;;9.50;80.80;;;;;;5049458;28;20009;-76
2021/10/24 09:47:46;;;;;;;8.48;6.32;;;9.50;80.50;;;;;;5049126;28;20029;-76
2021/10/24 09:50:39;;;;;;;10.63;7.95;;;9.60;80.30;;;;;;5046192;28;20013;-75
2021/10/24 09:53:09;;;;;;;;;;;9.70;80.20;;;;;;5049538;28;20462;-75
2021/10/24 09:55:35;;;;;;;10.30;7.82;;;9.70;79.80;;;;;;5045005;28;20003;-75
2021/10/24 09:58:04;;;;;;;10.70;6.88;;;9.70;79.80;;;;;;5051658;28;20119;-75
2021/10/24 10:00:30;;;;;;;11.05;7.65;;;9.80;79.80;;;;;;5049112;28;20029;-75
2021/10/24 10:02:58;;;;;;;8.40;6.28;;;9.90;79.70;;;;;;5051955;28;20029;-75
2021/10/24 10:05:24;;;;;;;11.50;7.00;;;9.90;79.50;;;;;;5049941;28;20044;-76
2021/10/24 10:07:49;;;;;;;10.18;7.10;;;10.00;79.30;;;;;;5050815;28;20025;-76
2021/10/24 10:10:15;;;;;;;7.93;5.90;;;10.00;79.20;;;;;;5052088;28;20488;-77
2021/10/24 10:12:47;;;;;;;8.70;6.13;;;10.10;79.30;;;;;;5042837;28;20041;-75
2021/10/24 10:15:14;;;;;;;9.60;6.93;;;10.10;79.20;;;;;;5034790;28;20021;-75
2021/10/24 10:17:40;;;;;;;13.68;8.82;;;10.10;78.70;;;;;;5050493;28;20080;-76
2021/10/24 10:20:29;;;;;;;12.15;7.90;;;10.20;78.50;;;;;;5054487;28;20032;-76
2021/10/24 10:23:09;;;;;;;10.77;7.20;;;10.20;78.50;;;;;;5042940;28;20483;-75
2021/10/24 10:25:37;;;;;;;11.57;7.35;;;10.30;78.30;;;;;;5051286;28;20032;-76
2021/10/24 10:28:05;;;;;;;11.07;6.70;;;10.30;78.10;;;;;;5050392;28;20027;-76
2021/10/24 10:30:43;;;;;;;10.10;5.55;;;10.40;78.20;;;;;;5047524;28;20468;-76
2021/10/24 10:33:32;;;;;;;6.53;4.40;;;10.40;78.20;;;;;;5048545;28;20116;-76
2021/10/24 10:36:00;;;;;;;10.23;7.40;;;10.60;78.10;;;;;;5047310;28;20021;-76
2021/10/24 10:38:30;;;;;;;10.50;7.68;;;10.60;77.50;;;;;;5047286;28;20033;-77
2021/10/24 10:40:56;;;;;;;8.70;6.28;;;10.60;77.50;;;;;;5046550;28;20028;-76
2021/10/24 10:43:22;;;;;;;9.38;7.15;;;10.80;77.20;;;;;;5054807;28;20029;-76
2021/10/24 10:45:51;;;;;;;7.85;5.32;;;10.80;76.90;;;;;;5051661;28;20494;-76
2021/10/24 10:48:40;;;;;;;9.02;6.55;;;10.80;77.00;;;;;;5042950;28;20136;-76
2021/10/24 10:51:23;;;;;;;10.98;6.90;;;10.80;76.20;;;;;;5042134;28;20025;-76
2021/10/24 10:54:02;;;;;;;9.95;6.95;;;10.80;76.40;;;;;;5048011;28;20488;-76
2021/10/24 10:56:30;;;;;;;10.40;6.60;;;10.80;75.90;;;;;;5055015;28;20112;-76
2021/10/24 10:59:00;;;;;;;8.77;5.60;;;10.80;75.70;;;;;;5049872;28;20060;-75
2021/10/24 11:01:30;;;;;;;8.45;5.80;;;10.90;75.90;;;;;;5049152;28;20533;-76
2021/10/24 11:03:57;;;;;;;6.68;5.32;;;10.90;75.80;;;;;;5040772;28;20105;-75
2021/10/24 11:06:25;;;;;;;11.43;7.00;;;11.00;75.60;;;;;;5050657;28;20420;-76
2021/10/24 11:08:54;;;;;;;9.68;7.07;;;11.10;74.90;;;;;;5048678;28;20037;-75
2021/10/24 11:11:38;;;;;;;8.65;5.72;;;11.10;74.70;;;;;;5041236;28;20037;-76
2021/10/24 11:14:15;;;;;;;10.90;6.82;;;11.20;75.20;;;;;;5039085;28;20026;-74
2021/10/24 11:16:49;;;;;;;9.00;6.10;;;11.20;74.40;;;;;;5040660;28;20030;-75
2021/10/24 11:19:27;;;;;;;11.27;7.05;;;11.20;74.50;;;;;;5049460;28;20036;-76
2021/10/24 11:21:58;;;;;;;8.93;6.30;;;11.20;74.10;;;;;;5049873;28;20021;-75
2021/10/24 11:24:45;;;;;;;10.68;7.00;;;11.30;74.20;;;;;;5037983;28;20021;-76
2021/10/24 11:27:22;;;;;;;11.65;6.60;;;11.30;73.60;;;;;;5051518;28;20503;-75
2021/10/24 11:29:49;;;;;;;8.35;5.50;;;11.30;73.50;;;;;;5049153;28;20024;-75
2021/10/24 11:32:21;;;;;;;7.88;4.93;;;11.40;73.70;;;;;;5052854;28;20511;-76
2021/10/24 11:34:47;;;;;;;11.80;6.10;;;11.50;73.90;;;;;;5050182;28;20033;-75
2021/10/24 11:37:13;;;;;;;9.45;6.38;;;11.60;74.00;;;;;;5054698;28;20051;-76
2021/10/24 11:39:40;;;;;;;9.55;6.75;;;11.60;73.20;;;;;;5066230;28;20154;-87
2021/10/24 11:42:12;;;;;;;8.70;6.32;;;11.60;73.00;;;;;;5050196;28;20025;-78
2021/10/24 11:44:37;;;;;;;11.02;6.55;;;11.80;73.00;;;;;;5045120;28;20036;-78
2021/10/24 11:47:09;;;;;;;7.57;5.47;;;12.60;71.50;;;;;;5052390;28;20025;-78
2021/10/24 11:49:52;;;;;;;7.05;5.30;;;14.00;68.40;;;;;;5064695;28;20016;-80
2021/10/24 11:52:35;;;;;;;6.88;5.72;;;14.70;66.10;;;;;;5039900;28;20037;-78
2021/10/24 11:55:14;;;;;;;7.40;5.07;;;15.10;64.70;;;;;;5038685;28;20022;-78
2021/10/24 11:58:05;;;;;;;8.13;5.72;;;14.60;64.10;;;;;;5047857;28;20502;-78
2021/10/24 12:00:49;;;;;;;6.38;5.07;;;13.60;65.80;;;;;;5058945;28;20375;-78
2021/10/24 12:03:28;;;;;;;8.07;4.65;;;13.00;68.10;;;;;;5046202;28;20048;-78
2021/10/24 12:05:54;;;;;;;8.48;5.43;;;13.00;69.40;;;;;;5051591;28;20024;-78
2021/10/24 12:08:45;;;;;;;8.48;5.80;;;12.80;69.20;;;;;;5061044;28;20490;-77
2021/10/24 12:11:20;;;;;;;8.88;5.65;;;12.70;69.90;;;;;;5047523;28;20369;-77
2021/10/24 12:13:48;;;;;;;8.32;5.97;;;12.60;68.50;;;;;;5041418;28;20029;-77
2021/10/24 12:16:29;;;;;;;9.32;6.15;;;12.60;68.70;;;;;;5049248;28;20028;-77
2021/10/24 12:19:10;;;;;;;7.03;4.57;;;12.50;68.70;;;;;;5059942;28;20041;-77
2021/10/24 12:21:35;;;;;;;8.85;5.90;;;12.70;69.40;;;;;;5041009;28;20054;-77
2021/10/24 12:24:21;;;;;;;8.00;5.03;;;12.70;68.50;;;;;;5056106;28;20756;-77
2021/10/24 12:26:46;;;;;;;6.13;4.03;;;13.00;69.10;;;;;;5043964;28;20036;-77
2021/10/24 12:29:17;;;;;;;7.55;5.18;;;13.30;69.10;;;;;;5059345;28;20091;-77
2021/10/24 12:32:03;;;;;;;6.90;4.93;;;13.40;68.30;;;;;;5053835;28;20021;-77
2021/10/24 12:34:29;;;;;;;9.32;5.97;;;13.40;68.20;;;;;;5059511;28;20029;-76
2021/10/24 12:36:55;;;;;;;8.13;5.93;;;13.40;67.20;;;;;;5049272;28;20025;-77
2021/10/24 12:39:26;;;;;;;8.48;4.88;;;13.50;67.00;;;;;;5050916;28;20393;-78
2021/10/24 12:41:52;;;;;;;7.20;4.82;;;13.70;67.20;;;;;;5053505;28;20028;-77
2021/10/24 12:44:23;;;;;;;7.40;4.72;;;13.90;66.30;;;;;;5051525;28;20039;-78
2021/10/24 12:46:50;;;;;;;8.10;4.57;;;14.10;66.00;;;;;;5064219;28;20086;-76
2021/10/24 12:49:21;;;;;;;7.00;4.88;;;14.30;65.90;;;;;;5056928;28;20020;-76
2021/10/24 12:51:49;;;;;;;6.03;4.90;;;14.50;65.30;;;;;;5055070;28;20056;-77
2021/10/24 12:54:30;;;;;;;5.70;3.95;;;14.60;64.50;;;;;;5049071;28;20623;-77
2021/10/24 12:56:55;;;;;;;6.78;4.72;;;14.80;64.80;;;;;;5054072;28;20032;-77